Terminal Aerodrome Forecast
Issued by NWS

Home | Current Version | Previous Version | Graphics & Text | Print | Product List | Glossary On
Versions: 1 2 3 4 5 6 7 8 9 10 11 12 13 14 15 16 17 18 19 20 21 22 23 24 25
000
FTUS43 KBIS 230536
TAFJMS
TAF
KJMS 230536Z 2306/2406 34007KT P6SM SCT040 BKN120
     FM230800 35007KT P6SM BKN035
     FM231000 02007KT P6SM SCT008 OVC015
     FM231500 04009KT P6SM BKN015
     FM232100 04013KT P6SM BKN035
     FM240200 03013KT P6SM BKN040=

USA.gov is the U.S. government's official web portal to all federal, state and local government web resources and services.